MSC Poh Lin — H8FC — position and weather

sailwx.info

Track history (hours):
 
Tides and Currents Weather Stations Pressure Air Temp Water Temp Dewpoint Dewpoint Depression Visibility Wind Speed Wind Dir Waves Ship Positions

MSC Poh Lin

Last reported at 2016-Jul-28 01:07 UTC. Time now 2016-Jul-29 07:56 UTC.
Position N 35°55' W 026°07'.

Length 294 m; draft 10.8 m.

Type: Ship (hazmat cat A). MMSI: 357405000.

Date/timePositionNaut miles runAvg speedWind from/ knotsBaromVisibWave heightAir tempDewpointWater temp
2016-Jul-28 01:07N 35°55' W 026°07'814.8
2016-Jul-28 00:34N 35°57' W 025°57'1514.9
2016-Jul-27 23:33N 35°60' W 025°39'1514.8
2016-Jul-27 22:33N 36°04' W 025°21'1414.5
2016-Jul-27 21:33N 36°06' W 025°04'1514.6
2016-Jul-27 20:33N 36°09' W 024°46'1515.0
2016-Jul-27 19:33N 36°13' W 024°28'1514.8
2016-Jul-27 18:34N 36°17' W 024°10'1514.5
2016-Jul-27 17:33N 36°20' W 023°53'1514.9
2016-Jul-27 16:33N 36°23' W 023°34'1514.7
2016-Jul-27 15:31N 36°26' W 023°16'1514.3
2016-Jul-27 14:27N 36°29' W 022°57'1314.4
2016-Jul-27 13:33N 36°31' W 022°41'1414.4
2016-Jul-27 12:33N 36°34' W 022°24'1814.3
2016-Jul-27 11:19N 36°37' W 022°02'1114.2
2016-Jul-27 10:33N 36°39' W 021°49'1814.4
2016-Jul-27 09:17N 36°43' W 021°26'32214.8
2016-Jul-26 11:27N 37°30' W 014°47'1514.5
2016-Jul-26 10:24N 37°32' W 014°28'1614.7
2016-Jul-26 09:17N 37°34' W 014°07'3214.6
2016-Jul-26 07:07N 37°38' W 013°27'914.7
2016-Jul-26 06:30N 37°39' W 013°16'2814.5
2016-Jul-26 04:32N 37°41' W 012°40'1614.5
2016-Jul-26 03:27N 37°43' W 012°21'1314.6
2016-Jul-26 02:33N 37°44' W 012°04'1514.6
2016-Jul-26 01:33N 37°45' W 011°46'1414.4
2016-Jul-26 00:33N 37°46' W 011°28'1414.2
2016-Jul-25 23:33N 37°47' W 011°10'1514.8
2016-Jul-25 22:34N 37°48' W 010°51'1514.7
2016-Jul-25 21:33N 37°49' W 010°32'1514.8
2016-Jul-25 20:33N 37°50' W 010°14'1514.6
2016-Jul-25 19:33N 37°51' W 009°55'1414.3
2016-Jul-25 18:33N 37°52' W 009°37'1514.6
2016-Jul-25 17:33N 37°52' W 009°19'1414.1
2016-Jul-25 16:33N 37°54' W 009°01'8 8.3
2016-Jul-25 15:33N 37°56' W 008°51'0 0.0
2016-Jul-25 14:31N 37°56' W 008°51'0 0.0
2016-Jul-25 13:31N 37°56' W 008°51'0 0.0
2016-Jul-25 12:31N 37°56' W 008°51'0 0.0
2016-Jul-25 11:31N 37°56' W 008°51'0 0.0
2016-Jul-25 10:28N 37°56' W 008°51'0 0.0
2016-Jul-25 09:31N 37°56' W 008°51'0 0.0
2016-Jul-25 08:31N 37°56' W 008°51'0 0.0
2016-Jul-25 07:31N 37°56' W 008°51'0 0.0
2016-Jul-25 06:31N 37°56' W 008°51'0 0.0
2016-Jul-25 05:28N 37°56' W 008°51'0 0.0
2016-Jul-25 04:31N 37°56' W 008°51'0 0.0
2016-Jul-25 03:31N 37°56' W 008°51'0 0.2
2016-Jul-25 02:33N 37°56' W 008°51'4 3.7
2016-Jul-25 01:33N 37°52' W 008°51'5 5.0
2016-Jul-25 00:33N 37°48' W 008°54'9 8.7
2016-Jul-24 23:34N 37°40' W 008°59'1616.0
2016-Jul-24 22:33N 37°25' W 009°07'1616.1
2016-Jul-24 21:34N 37°11' W 009°16'1616.0
2016-Jul-24 20:33N 36°55' W 009°18'1818.1
2016-Jul-24 19:33N 36°43' W 009°01'2620.3
2016-Jul-24 18:16N 36°36' W 008°29'1520.6
2016-Jul-24 17:32N 36°31' W 008°12'2020.6
2016-Jul-24 16:34N 36°25' W 007°48'2520.3
2016-Jul-24 15:20N 36°18' W 007°18'8620.8
2016-Jul-24 11:11N 35°57' W 005°34'1117.1
2016-Jul-24 10:33N 36°01' W 005°22'12019.9
2016-Jul-24 04:33N 36°23' W 002°56'2020.5
2016-Jul-24 03:33N 36°25' W 002°31'4019.9
2016-Jul-24 01:32N 36°43' W 001°46'4521.6
2016-Jul-23 23:27N 37°13' W 001°04'1920.9
2016-Jul-23 22:33N 37°25' W 000°46'2120.7
2016-Jul-23 21:33N 37°40' W 000°28'2120.9
2016-Jul-23 20:33N 37°58' W 000°15'8716.0
2016-Jul-23 15:06N 39°25' W 000°18'2 2.8
2016-Jul-23 14:33N 39°26' W 000°19'0 0.0
2016-Jul-23 13:33N 39°26' W 000°19'0 0.0
2016-Jul-23 11:28N 39°26' W 000°19'0 0.0
2016-Jul-23 09:31N 39°26' W 000°19'0 0.0
2016-Jul-23 08:31N 39°26' W 000°19'0 0.0
2016-Jul-23 07:31N 39°26' W 000°19'0 0.0
2016-Jul-23 06:28N 39°26' W 000°19'0 0.0
2016-Jul-23 04:31N 39°26' W 000°19'0 0.0
2016-Jul-23 03:31N 39°26' W 000°19'0 0.0
2016-Jul-23 02:31N 39°26' W 000°19'0 0.0
2016-Jul-23 01:07N 39°26' W 000°19'0 0.0
2016-Jul-23 00:10N 39°26' W 000°19'0 0.0
2016-Jul-22 23:31N 39°26' W 000°19'0 0.0
2016-Jul-22 22:31N 39°26' W 000°19'4 4.3
2016-Jul-22 21:33N 39°24' W 000°15'0 0.2
2016-Jul-22 20:33N 39°24' W 000°15'0 0.0
2016-Jul-22 09:32N 39°24' W 000°15'6 5.7
2016-Jul-22 08:32N 39°25' W 000°08'5310.6
2016-Jul-22 03:33N 39°46' E 000°55'1212.0
2016-Jul-22 02:33N 39°55' E 001°06'1212.4
2016-Jul-22 01:33N 40°04' E 001°17'1212.4
2016-Jul-22 00:33N 40°13' E 001°28'1212.5
2016-Jul-21 23:33N 40°22' E 001°39'1212.5
2016-Jul-21 22:33N 40°31' E 001°51'1312.4
2016-Jul-21 21:33N 40°40' E 002°02'1212.2
2016-Jul-21 20:33N 40°49' E 002°13'1212.4
2016-Jul-21 19:33N 40°58' E 002°24'1312.7
2016-Jul-21 18:33N 41°07' E 002°36'1313.3
2016-Jul-21 17:33N 41°17' E 002°48'1312.8
2016-Jul-21 16:33N 41°26' E 003°01'1211.6
2016-Jul-21 15:32N 41°34' E 003°11'1211.7
2016-Jul-21 14:32N 41°43' E 003°22'1111.0
2016-Jul-21 13:33N 41°51' E 003°32'24 6.0
2016-Jul-21 09:30N 42°11' E 003°51'6612.7
2016-Jul-21 04:20N 43°01' E 004°47'1012.2
2016-Jul-21 03:30N 43°09' E 004°57'1011.0
2016-Jul-21 02:33N 43°19' E 004°58'9 1.6
2016-Jul-20 21:14N 43°25' E 004°50'5 1.0
2016-Jul-20 16:31N 43°23' E 004°56'8 8.1
2016-Jul-20 15:33N 43°16' E 005°01'8 7.7
2016-Jul-20 14:33N 43°10' E 005°07'34 8.6
2016-Jul-20 10:33N 42°55' E 005°49'22 8.9
2016-Jul-20 08:03N 42°51' E 006°19'5 9.1
2016-Jul-20 07:33N 42°51' E 006°25'9 9.1
2016-Jul-20 06:34N 42°55' E 006°37'10 9.7
2016-Jul-20 05:33N 42°59' E 006°49'10 9.8
2016-Jul-20 04:33N 43°03' E 007°01'10 9.8
2016-Jul-20 03:33N 43°07' E 007°13'10 9.7
2016-Jul-20 02:33N 43°11' E 007°25'9 9.3
2016-Jul-20 01:33N 43°14' E 007°37'9 8.9
2016-Jul-20 00:33N 43°18' E 007°48'9 8.6
2016-Jul-19 23:33N 43°20' E 007°60'9 8.5
2016-Jul-19 22:33N 43°24' E 008°11'9 8.7
2016-Jul-19 21:33N 43°29' E 008°20'9 8.6
2016-Jul-19 20:33N 43°33' E 008°31'9 9.4
2016-Jul-19 19:33N 43°37' E 008°42'10 9.8
2016-Jul-19 18:33N 43°41' E 008°55'10 9.9
2016-Jul-19 17:33N 43°45' E 009°07'10 9.6
2016-Jul-19 16:33N 43°49' E 009°19'10 9.7
2016-Jul-19 15:33N 43°53' E 009°31'10 9.5
2016-Jul-19 14:33N 43°57' E 009°43'8 8.4
2016-Jul-19 13:33N 44°02' E 009°52'4 4.2
2016-Jul-19 12:33N 44°06' E 009°51'0 0.0
2016-Jul-19 11:33N 44°06' E 009°51'0 0.0
2016-Jul-19 10:31N 44°06' E 009°51'0 0.0
2016-Jul-19 09:32N 44°06' E 009°51'0 0.0
2016-Jul-19 04:31N 44°06' E 009°51'0 0.0
2016-Jul-19 03:34N 44°06' E 009°51'0 0.0
2016-Jul-19 02:31N 44°06' E 009°51'0 0.0
2016-Jul-19 01:31N 44°06' E 009°51'0 0.0
2016-Jul-19 00:31N 44°06' E 009°51'0 0.0
2016-Jul-18 23:34N 44°06' E 009°51'0 0.0
2016-Jul-18 22:31N 44°06' E 009°51'0 0.0
2016-Jul-18 21:33N 44°06' E 009°51'0 0.0
2016-Jul-18 20:25N 44°06' E 009°51'0 0.0
2016-Jul-18 19:34N 44°06' E 009°51'0 0.0
2016-Jul-18 18:34N 44°06' E 009°51'0 0.0
2016-Jul-18 17:34N 44°06' E 009°51'0 0.0
2016-Jul-18 16:33N 44°06' E 009°51'5 4.6
2016-Jul-18 15:33N 44°02' E 009°54'1 0.9
2016-Jul-18 14:33N 44°02' E 009°55'7 7.2
2016-Jul-18 13:33N 43°55' E 009°54'9 8.8
2016-Jul-18 12:33N 43°46' E 009°50'8 7.9
2016-Jul-18 11:33N 43°39' E 009°47'8 8.1
2016-Jul-18 10:33N 43°31' E 009°45'8 8.2
2016-Jul-18 09:33N 43°23' E 009°43'8 8.2
2016-Jul-18 08:33N 43°15' E 009°40'8 8.4
2016-Jul-18 07:33N 43°06' E 009°39'30 8.9
2016-Jul-18 04:09N 42°36' E 009°45'6 8.7
2016-Jul-18 03:31N 42°31' E 009°46'16 8.4
2016-Jul-18 01:33N 42°15' E 009°54'  
Track history (hours):
 
Tides and Currents Weather Stations Pressure Air Temp Water Temp Dewpoint Dewpoint Depression Visibility Wind Speed Wind Dir Waves Ship Positions

MSC Poh Lin

Last reported at 2016-Jul-28 01:07 UTC. Time now 2016-Jul-29 07:56 UTC.
Position N 35°55' W 026°07'.

Length 294 m; draft 10.8 m.

Type: Ship (hazmat cat A). MMSI: 357405000.

Date/timePositionNaut miles runAvg speedWind from/ knotsBaromVisibWave heightAir tempDewpointWater temp
2016-Jul-28 01:07N 35°55' W 026°07'814.8
2016-Jul-28 00:34N 35°57' W 025°57'1514.9
2016-Jul-27 23:33N 35°60' W 025°39'1514.8
2016-Jul-27 22:33N 36°04' W 025°21'1414.5
2016-Jul-27 21:33N 36°06' W 025°04'1514.6
2016-Jul-27 20:33N 36°09' W 024°46'1515.0
2016-Jul-27 19:33N 36°13' W 024°28'1514.8
2016-Jul-27 18:34N 36°17' W 024°10'1514.5
2016-Jul-27 17:33N 36°20' W 023°53'1514.9
2016-Jul-27 16:33N 36°23' W 023°34'1514.7
2016-Jul-27 15:31N 36°26' W 023°16'1514.3
2016-Jul-27 14:27N 36°29' W 022°57'1314.4
2016-Jul-27 13:33N 36°31' W 022°41'1414.4
2016-Jul-27 12:33N 36°34' W 022°24'1814.3
2016-Jul-27 11:19N 36°37' W 022°02'1114.2
2016-Jul-27 10:33N 36°39' W 021°49'1814.4
2016-Jul-27 09:17N 36°43' W 021°26'32214.8
2016-Jul-26 11:27N 37°30' W 014°47'1514.5
2016-Jul-26 10:24N 37°32' W 014°28'1614.7
2016-Jul-26 09:17N 37°34' W 014°07'3214.6
2016-Jul-26 07:07N 37°38' W 013°27'914.7
2016-Jul-26 06:30N 37°39' W 013°16'2814.5
2016-Jul-26 04:32N 37°41' W 012°40'1614.5
2016-Jul-26 03:27N 37°43' W 012°21'1314.6
2016-Jul-26 02:33N 37°44' W 012°04'1514.6
2016-Jul-26 01:33N 37°45' W 011°46'1414.4
2016-Jul-26 00:33N 37°46' W 011°28'1414.2
2016-Jul-25 23:33N 37°47' W 011°10'1514.8
2016-Jul-25 22:34N 37°48' W 010°51'1514.7
2016-Jul-25 21:33N 37°49' W 010°32'1514.8
2016-Jul-25 20:33N 37°50' W 010°14'1514.6
2016-Jul-25 19:33N 37°51' W 009°55'1414.3
2016-Jul-25 18:33N 37°52' W 009°37'1514.6
2016-Jul-25 17:33N 37°52' W 009°19'1414.1
2016-Jul-25 16:33N 37°54' W 009°01'8 8.3
2016-Jul-25 15:33N 37°56' W 008°51'0 0.0
2016-Jul-25 14:31N 37°56' W 008°51'0 0.0
2016-Jul-25 13:31N 37°56' W 008°51'0 0.0
2016-Jul-25 12:31N 37°56' W 008°51'0 0.0
2016-Jul-25 11:31N 37°56' W 008°51'0 0.0
2016-Jul-25 10:28N 37°56' W 008°51'0 0.0
2016-Jul-25 09:31N 37°56' W 008°51'0 0.0
2016-Jul-25 08:31N 37°56' W 008°51'0 0.0
2016-Jul-25 07:31N 37°56' W 008°51'0 0.0
2016-Jul-25 06:31N 37°56' W 008°51'0 0.0
2016-Jul-25 05:28N 37°56' W 008°51'0 0.0
2016-Jul-25 04:31N 37°56' W 008°51'0 0.0
2016-Jul-25 03:31N 37°56' W 008°51'0 0.2
2016-Jul-25 02:33N 37°56' W 008°51'4 3.7
2016-Jul-25 01:33N 37°52' W 008°51'5 5.0
2016-Jul-25 00:33N 37°48' W 008°54'9 8.7
2016-Jul-24 23:34N 37°40' W 008°59'1616.0
2016-Jul-24 22:33N 37°25' W 009°07'1616.1
2016-Jul-24 21:34N 37°11' W 009°16'1616.0
2016-Jul-24 20:33N 36°55' W 009°18'1818.1
2016-Jul-24 19:33N 36°43' W 009°01'2620.3
2016-Jul-24 18:16N 36°36' W 008°29'1520.6
2016-Jul-24 17:32N 36°31' W 008°12'2020.6
2016-Jul-24 16:34N 36°25' W 007°48'2520.3
2016-Jul-24 15:20N 36°18' W 007°18'8620.8
2016-Jul-24 11:11N 35°57' W 005°34'1117.1
2016-Jul-24 10:33N 36°01' W 005°22'12019.9
2016-Jul-24 04:33N 36°23' W 002°56'2020.5
2016-Jul-24 03:33N 36°25' W 002°31'4019.9
2016-Jul-24 01:32N 36°43' W 001°46'4521.6
2016-Jul-23 23:27N 37°13' W 001°04'1920.9
2016-Jul-23 22:33N 37°25' W 000°46'2120.7
2016-Jul-23 21:33N 37°40' W 000°28'2120.9
2016-Jul-23 20:33N 37°58' W 000°15'8716.0
2016-Jul-23 15:06N 39°25' W 000°18'2 2.8
2016-Jul-23 14:33N 39°26' W 000°19'0 0.0
2016-Jul-23 13:33N 39°26' W 000°19'0 0.0
2016-Jul-23 11:28N 39°26' W 000°19'0 0.0
2016-Jul-23 09:31N 39°26' W 000°19'0 0.0
2016-Jul-23 08:31N 39°26' W 000°19'0 0.0
2016-Jul-23 07:31N 39°26' W 000°19'0 0.0
2016-Jul-23 06:28N 39°26' W 000°19'0 0.0
2016-Jul-23 04:31N 39°26' W 000°19'0 0.0
2016-Jul-23 03:31N 39°26' W 000°19'0 0.0
2016-Jul-23 02:31N 39°26' W 000°19'0 0.0
2016-Jul-23 01:07N 39°26' W 000°19'0 0.0
2016-Jul-23 00:10N 39°26' W 000°19'0 0.0
2016-Jul-22 23:31N 39°26' W 000°19'0 0.0
2016-Jul-22 22:31N 39°26' W 000°19'4 4.3
2016-Jul-22 21:33N 39°24' W 000°15'0 0.2
2016-Jul-22 20:33N 39°24' W 000°15'0 0.0
2016-Jul-22 09:32N 39°24' W 000°15'6 5.7
2016-Jul-22 08:32N 39°25' W 000°08'5310.6
2016-Jul-22 03:33N 39°46' E 000°55'1212.0
2016-Jul-22 02:33N 39°55' E 001°06'1212.4
2016-Jul-22 01:33N 40°04' E 001°17'1212.4
2016-Jul-22 00:33N 40°13' E 001°28'1212.5
2016-Jul-21 23:33N 40°22' E 001°39'1212.5
2016-Jul-21 22:33N 40°31' E 001°51'1312.4
2016-Jul-21 21:33N 40°40' E 002°02'1212.2
2016-Jul-21 20:33N 40°49' E 002°13'1212.4
2016-Jul-21 19:33N 40°58' E 002°24'1312.7
2016-Jul-21 18:33N 41°07' E 002°36'1313.3
2016-Jul-21 17:33N 41°17' E 002°48'1312.8
2016-Jul-21 16:33N 41°26' E 003°01'1211.6
2016-Jul-21 15:32N 41°34' E 003°11'1211.7
2016-Jul-21 14:32N 41°43' E 003°22'1111.0
2016-Jul-21 13:33N 41°51' E 003°32'24 6.0
2016-Jul-21 09:30N 42°11' E 003°51'6612.7
2016-Jul-21 04:20N 43°01' E 004°47'1012.2
2016-Jul-21 03:30N 43°09' E 004°57'1011.0
2016-Jul-21 02:33N 43°19' E 004°58'9 1.6
2016-Jul-20 21:14N 43°25' E 004°50'5 1.0
2016-Jul-20 16:31N 43°23' E 004°56'8 8.1
2016-Jul-20 15:33N 43°16' E 005°01'8 7.7
2016-Jul-20 14:33N 43°10' E 005°07'34 8.6
2016-Jul-20 10:33N 42°55' E 005°49'22 8.9
2016-Jul-20 08:03N 42°51' E 006°19'5 9.1
2016-Jul-20 07:33N 42°51' E 006°25'9 9.1
2016-Jul-20 06:34N 42°55' E 006°37'10 9.7
2016-Jul-20 05:33N 42°59' E 006°49'10 9.8
2016-Jul-20 04:33N 43°03' E 007°01'10 9.8
2016-Jul-20 03:33N 43°07' E 007°13'10 9.7
2016-Jul-20 02:33N 43°11' E 007°25'9 9.3
2016-Jul-20 01:33N 43°14' E 007°37'9 8.9
2016-Jul-20 00:33N 43°18' E 007°48'9 8.6
2016-Jul-19 23:33N 43°20' E 007°60'9 8.5
2016-Jul-19 22:33N 43°24' E 008°11'9 8.7
2016-Jul-19 21:33N 43°29' E 008°20'9 8.6
2016-Jul-19 20:33N 43°33' E 008°31'9 9.4
2016-Jul-19 19:33N 43°37' E 008°42'10 9.8
2016-Jul-19 18:33N 43°41' E 008°55'10 9.9
2016-Jul-19 17:33N 43°45' E 009°07'10 9.6
2016-Jul-19 16:33N 43°49' E 009°19'10 9.7
2016-Jul-19 15:33N 43°53' E 009°31'10 9.5
2016-Jul-19 14:33N 43°57' E 009°43'8 8.4
2016-Jul-19 13:33N 44°02' E 009°52'4 4.2
2016-Jul-19 12:33N 44°06' E 009°51'0 0.0
2016-Jul-19 11:33N 44°06' E 009°51'0 0.0
2016-Jul-19 10:31N 44°06' E 009°51'0 0.0
2016-Jul-19 09:32N 44°06' E 009°51'0 0.0
2016-Jul-19 04:31N 44°06' E 009°51'0 0.0
2016-Jul-19 03:34N 44°06' E 009°51'0 0.0
2016-Jul-19 02:31N 44°06' E 009°51'0 0.0
2016-Jul-19 01:31N 44°06' E 009°51'0 0.0
2016-Jul-19 00:31N 44°06' E 009°51'0 0.0
2016-Jul-18 23:34N 44°06' E 009°51'0 0.0
2016-Jul-18 22:31N 44°06' E 009°51'0 0.0
2016-Jul-18 21:33N 44°06' E 009°51'0 0.0
2016-Jul-18 20:25N 44°06' E 009°51'0 0.0
2016-Jul-18 19:34N 44°06' E 009°51'0 0.0
2016-Jul-18 18:34N 44°06' E 009°51'0 0.0
2016-Jul-18 17:34N 44°06' E 009°51'0 0.0
2016-Jul-18 16:33N 44°06' E 009°51'5 4.6
2016-Jul-18 15:33N 44°02' E 009°54'1 0.9
2016-Jul-18 14:33N 44°02' E 009°55'7 7.2
2016-Jul-18 13:33N 43°55' E 009°54'9 8.8
2016-Jul-18 12:33N 43°46' E 009°50'8 7.9
2016-Jul-18 11:33N 43°39' E 009°47'8 8.1
2016-Jul-18 10:33N 43°31' E 009°45'8 8.2
2016-Jul-18 09:33N 43°23' E 009°43'8 8.2
2016-Jul-18 08:33N 43°15' E 009°40'8 8.4
2016-Jul-18 07:33N 43°06' E 009°39'30 8.9
2016-Jul-18 04:09N 42°36' E 009°45'6 8.7
2016-Jul-18 03:31N 42°31' E 009°46'16 8.4
2016-Jul-18 01:33N 42°15' E 009°54'  

Dump ship's entire track history